sensor_id;sensor_type;location;lat;lon;timestamp;temperature;humidity
19805;DHT22;10062;51.052;13.756;2023-07-09T00:02:27;23.20;1.00
19805;DHT22;10062;51.052;13.756;2023-07-09T00:04:58;23.20;1.00
19805;DHT22;10062;51.052;13.756;2023-07-09T00:07:32;23.10;1.00
19805;DHT22;10062;51.052;13.756;2023-07-09T00:10:12;23.20;1.00
19805;DHT22;10062;51.052;13.756;2023-07-09T00:12:46;23.20;1.00
19805;DHT22;10062;51.052;13.756;2023-07-09T00:15:18;23.10;1.00
19805;DHT22;10062;51.052;13.756;2023-07-09T00:17:50;23.10;1.00
19805;DHT22;10062;51.052;13.756;2023-07-09T00:20:22;23.10;1.00
19805;DHT22;10062;51.052;13.756;2023-07-09T00:22:53;23.10;1.00
19805;DHT22;10062;51.052;13.756;2023-07-09T00:25:25;23.00;1.00
19805;DHT22;10062;51.052;13.756;2023-07-09T00:27:58;22.90;1.00
19805;DHT22;10062;51.052;13.756;2023-07-09T00:30:30;22.90;1.00
19805;DHT22;10062;51.052;13.756;2023-07-09T00:33:02;22.90;1.00
19805;DHT22;10062;51.052;13.756;2023-07-09T00:35:35;22.90;1.00
19805;DHT22;10062;51.052;13.756;2023-07-09T00:38:14;22.50;1.00
19805;DHT22;10062;51.052;13.756;2023-07-09T00:40:48;21.60;99.90
19805;DHT22;10062;51.052;13.756;2023-07-09T00:43:22;21.50;1.00
19805;DHT22;10062;51.052;13.756;2023-07-09T00:46:16;21.20;1.00
19805;DHT22;10062;51.052;13.756;2023-07-09T00:48:51;20.70;99.90
19805;DHT22;10062;51.052;13.756;2023-07-09T00:51:26;20.70;99.90
19805;DHT22;10062;51.052;13.756;2023-07-09T00:54:01;20.90;99.90
19805;DHT22;10062;51.052;13.756;2023-07-09T00:56:40;21.00;99.90
19805;DHT22;10062;51.052;13.756;2023-07-09T00:59:18;20.70;1.00
19805;DHT22;10062;51.052;13.756;2023-07-09T01:01:53;20.50;1.00
19805;DHT22;10062;51.052;13.756;2023-07-09T01:04:25;20.10;1.00
19805;DHT22;10062;51.052;13.756;2023-07-09T01:06:58;20.10;1.00
19805;DHT22;10062;51.052;13.756;2023-07-09T01:09:30;20.20;1.00
19805;DHT22;10062;51.052;13.756;2023-07-09T01:12:03;20.20;99.90
19805;DHT22;10062;51.052;13.756;2023-07-09T01:14:38;20.00;1.00
19805;DHT22;10062;51.052;13.756;2023-07-09T01:17:10;20.10;99.90
19805;DHT22;10062;51.052;13.756;2023-07-09T01:19:43;20.20;99.90
19805;DHT22;10062;51.052;13.756;2023-07-09T01:22:19;20.30;1.00
19805;DHT22;10062;51.052;13.756;2023-07-09T01:24:58;20.40;99.90
19805;DHT22;10062;51.052;13.756;2023-07-09T01:27:34;20.40;1.00
19805;DHT22;10062;51.052;13.756;2023-07-09T01:30:10;20.60;1.00
19805;DHT22;10062;51.052;13.756;2023-07-09T01:32:42;20.50;1.00
19805;DHT22;10062;51.052;13.756;2023-07-09T01:35:19;20.60;1.00
19805;DHT22;10062;51.052;13.756;2023-07-09T01:37:53;20.70;99.90
19805;DHT22;10062;51.052;13.756;2023-07-09T01:40:26;20.80;99.90
19805;DHT22;10062;51.052;13.756;2023-07-09T01:42:59;20.60;1.00
19805;DHT22;10062;51.052;13.756;2023-07-09T01:45:31;20.30;1.00
19805;DHT22;10062;51.052;13.756;2023-07-09T01:48:03;20.30;1.00
19805;DHT22;10062;51.052;13.756;2023-07-09T01:50:35;20.40;99.90
19805;DHT22;10062;51.052;13.756;2023-07-09T01:53:11;20.40;99.90
19805;DHT22;10062;51.052;13.756;2023-07-09T01:55:45;20.30;99.90
19805;DHT22;10062;51.052;13.756;2023-07-09T01:58:18;20.30;99.90
19805;DHT22;10062;51.052;13.756;2023-07-09T02:00:50;20.50;99.90
19805;DHT22;10062;51.052;13.756;2023-07-09T02:03:22;20.60;1.00
19805;DHT22;10062;51.052;13.756;2023-07-09T02:05:55;20.50;1.00
19805;DHT22;10062;51.052;13.756;2023-07-09T02:08:29;20.50;1.00
19805;DHT22;10062;51.052;13.756;2023-07-09T02:11:01;20.20;1.00
19805;DHT22;10062;51.052;13.756;2023-07-09T02:13:33;19.80;1.00
19805;DHT22;10062;51.052;13.756;2023-07-09T02:16:05;19.90;99.90
19805;DHT22;10062;51.052;13.756;2023-07-09T02:18:36;19.70;99.90
19805;DHT22;10062;51.052;13.756;2023-07-09T02:21:08;19.30;1.00
19805;DHT22;10062;51.052;13.756;2023-07-09T02:23:41;18.70;99.90
19805;DHT22;10062;51.052;13.756;2023-07-09T02:26:12;18.60;1.00
19805;DHT22;10062;51.052;13.756;2023-07-09T02:28:44;18.60;1.00
19805;DHT22;10062;51.052;13.756;2023-07-09T02:31:16;18.60;1.00
19805;DHT22;10062;51.052;13.756;2023-07-09T02:33:49;18.80;99.90
19805;DHT22;10062;51.052;13.756;2023-07-09T02:36:21;18.70;1.00
19805;DHT22;10062;51.052;13.756;2023-07-09T02:38:55;18.80;1.00
19805;DHT22;10062;51.052;13.756;2023-07-09T02:41:27;18.70;1.00
19805;DHT22;10062;51.052;13.756;2023-07-09T02:44:00;18.70;1.00
19805;DHT22;10062;51.052;13.756;2023-07-09T02:46:31;18.30;1.00
19805;DHT22;10062;51.052;13.756;2023-07-09T02:49:04;18.30;1.00
19805;DHT22;10062;51.052;13.756;2023-07-09T02:51:38;18.40;1.00
19805;DHT22;10062;51.052;13.756;2023-07-09T02:54:11;18.50;1.00
19805;DHT22;10062;51.052;13.756;2023-07-09T02:56:43;18.70;1.00
19805;DHT22;10062;51.052;13.756;2023-07-09T02:59:14;18.80;99.90
19805;DHT22;10062;51.052;13.756;2023-07-09T03:01:46;18.80;1.00
19805;DHT22;10062;51.052;13.756;2023-07-09T03:04:18;18.50;1.00
19805;DHT22;10062;51.052;13.756;2023-07-09T03:06:51;18.20;1.00
19805;DHT22;10062;51.052;13.756;2023-07-09T03:09:24;18.10;1.00
19805;DHT22;10062;51.052;13.756;2023-07-09T03:11:56;18.00;1.00
19805;DHT22;10062;51.052;13.756;2023-07-09T03:14:28;18.10;1.00
19805;DHT22;10062;51.052;13.756;2023-07-09T03:16:59;18.20;99.90
19805;DHT22;10062;51.052;13.756;2023-07-09T03:19:31;18.40;99.90
19805;DHT22;10062;51.052;13.756;2023-07-09T03:22:03;18.40;1.00
19805;DHT22;10062;51.052;13.756;2023-07-09T03:24:36;18.30;1.00
19805;DHT22;10062;51.052;13.756;2023-07-09T03:27:08;18.10;1.00
19805;DHT22;10062;51.052;13.756;2023-07-09T03:29:40;18.10;99.90
19805;DHT22;10062;51.052;13.756;2023-07-09T03:32:12;18.30;1.00
19805;DHT22;10062;51.052;13.756;2023-07-09T03:34:43;18.10;1.00
19805;DHT22;10062;51.052;13.756;2023-07-09T03:37:15;18.10;14.70
19805;DHT22;10062;51.052;13.756;2023-07-09T03:39:48;16.30;1.00
19805;DHT22;10062;51.052;13.756;2023-07-09T03:42:20;18.40;1.00
19805;DHT22;10062;51.052;13.756;2023-07-09T03:44:51;18.00;1.00
19805;DHT22;10062;51.052;13.756;2023-07-09T03:47:23;17.90;99.90
19805;DHT22;10062;51.052;13.756;2023-07-09T03:49:55;17.90;99.90
19805;DHT22;10062;51.052;13.756;2023-07-09T03:52:26;18.00;99.90
19805;DHT22;10062;51.052;13.756;2023-07-09T03:55:00;18.10;99.90
19805;DHT22;10062;51.052;13.756;2023-07-09T03:57:34;17.90;99.90
19805;DHT22;10062;51.052;13.756;2023-07-09T04:00:07;17.90;99.90
19805;DHT22;10062;51.052;13.756;2023-07-09T04:02:45;18.00;99.90
19805;DHT22;10062;51.052;13.756;2023-07-09T04:05:17;18.00;99.90
19805;DHT22;10062;51.052;13.756;2023-07-09T04:07:49;17.90;1.00
19805;DHT22;10062;51.052;13.756;2023-07-09T04:10:22;17.90;1.00
19805;DHT22;10062;51.052;13.756;2023-07-09T04:12:53;17.90;1.00
19805;DHT22;10062;51.052;13.756;2023-07-09T04:15:26;18.00;1.00
19805;DHT22;10062;51.052;13.756;2023-07-09T04:17:58;18.20;99.90
19805;DHT22;10062;51.052;13.756;2023-07-09T04:20:30;18.20;99.90
19805;DHT22;10062;51.052;13.756;2023-07-09T04:23:02;18.30;99.90
19805;DHT22;10062;51.052;13.756;2023-07-09T04:25:36;18.30;1.00
19805;DHT22;10062;51.052;13.756;2023-07-09T04:28:08;18.00;99.90
19805;DHT22;10062;51.052;13.756;2023-07-09T04:30:46;18.00;99.90
19805;DHT22;10062;51.052;13.756;2023-07-09T04:33:19;18.20;99.90
19805;DHT22;10062;51.052;13.756;2023-07-09T04:35:51;18.10;99.90
19805;DHT22;10062;51.052;13.756;2023-07-09T04:38:23;18.00;99.90
19805;DHT22;10062;51.052;13.756;2023-07-09T04:40:56;18.10;99.90
19805;DHT22;10062;51.052;13.756;2023-07-09T04:43:28;18.30;1.00
19805;DHT22;10062;51.052;13.756;2023-07-09T04:45:59;18.30;1.00
19805;DHT22;10062;51.052;13.756;2023-07-09T04:48:31;18.20;1.00
19805;DHT22;10062;51.052;13.756;2023-07-09T04:51:03;18.30;1.00
19805;DHT22;10062;51.052;13.756;2023-07-09T04:53:34;18.40;1.00
19805;DHT22;10062;51.052;13.756;2023-07-09T04:56:08;18.40;1.00
19805;DHT22;10062;51.052;13.756;2023-07-09T04:58:40;18.50;1.00
19805;DHT22;10062;51.052;13.756;2023-07-09T05:01:11;18.50;99.90
19805;DHT22;10062;51.052;13.756;2023-07-09T05:03:43;18.50;1.00
19805;DHT22;10062;51.052;13.756;2023-07-09T05:06:15;18.60;99.90
19805;DHT22;10062;51.052;13.756;2023-07-09T05:08:47;18.70;99.90
19805;DHT22;10062;51.052;13.756;2023-07-09T05:11:20;18.90;1.00
19805;DHT22;10062;51.052;13.756;2023-07-09T05:13:51;19.10;1.00
19805;DHT22;10062;51.052;13.756;2023-07-09T05:16:23;19.20;1.00
19805;DHT22;10062;51.052;13.756;2023-07-09T05:18:55;19.30;1.00
19805;DHT22;10062;51.052;13.756;2023-07-09T05:21:26;19.10;1.00
19805;DHT22;10062;51.052;13.756;2023-07-09T05:23:58;19.20;1.00
19805;DHT22;10062;51.052;13.756;2023-07-09T05:26:31;19.20;1.00
19805;DHT22;10062;51.052;13.756;2023-07-09T05:29:03;19.20;1.00
19805;DHT22;10062;51.052;13.756;2023-07-09T05:31:35;19.40;1.00
19805;DHT22;10062;51.052;13.756;2023-07-09T05:34:07;19.50;1.00
19805;DHT22;10062;51.052;13.756;2023-07-09T05:36:39;20.70;1.00
19805;DHT22;10062;51.052;13.756;2023-07-09T05:39:11;19.70;1.00
19805;DHT22;10062;51.052;13.756;2023-07-09T05:41:44;19.90;99.90
19805;DHT22;10062;51.052;13.756;2023-07-09T05:44:16;20.00;99.90
19805;DHT22;10062;51.052;13.756;2023-07-09T05:46:48;20.10;99.90
19805;DHT22;10062;51.052;13.756;2023-07-09T05:49:19;22.30;99.90
19805;DHT22;10062;51.052;13.756;2023-07-09T05:51:51;20.40;1.00
19805;DHT22;10062;51.052;13.756;2023-07-09T05:54:22;20.40;1.00
19805;DHT22;10062;51.052;13.756;2023-07-09T05:56:55;20.40;1.00
19805;DHT22;10062;51.052;13.756;2023-07-09T05:59:27;20.30;1.00
19805;DHT22;10062;51.052;13.756;2023-07-09T06:01:59;20.40;1.00
19805;DHT22;10062;51.052;13.756;2023-07-09T06:04:31;20.50;1.00
19805;DHT22;10062;51.052;13.756;2023-07-09T06:07:03;20.60;1.00
19805;DHT22;10062;51.052;13.756;2023-07-09T06:09:35;20.80;1.00
19805;DHT22;10062;51.052;13.756;2023-07-09T06:12:09;20.90;1.00
19805;DHT22;10062;51.052;13.756;2023-07-09T06:14:41;21.00;1.00
19805;DHT22;10062;51.052;13.756;2023-07-09T06:17:13;21.10;1.00
19805;DHT22;10062;51.052;13.756;2023-07-09T06:19:45;21.20;1.00
19805;DHT22;10062;51.052;13.756;2023-07-09T06:22:16;21.20;1.00
19805;DHT22;10062;51.052;13.756;2023-07-09T06:24:48;21.30;1.00
19805;DHT22;10062;51.052;13.756;2023-07-09T06:27:21;21.40;1.00
19805;DHT22;10062;51.052;13.756;2023-07-09T06:29:53;21.50;1.00
19805;DHT22;10062;51.052;13.756;2023-07-09T06:32:26;22.70;1.00
19805;DHT22;10062;51.052;13.756;2023-07-09T06:34:58;21.70;1.00
19805;DHT22;10062;51.052;13.756;2023-07-09T06:37:29;21.80;1.00
19805;DHT22;10062;51.052;13.756;2023-07-09T06:40:01;21.90;1.00
19805;DHT22;10062;51.052;13.756;2023-07-09T06:42:36;22.10;1.00
19805;DHT22;10062;51.052;13.756;2023-07-09T06:45:16;22.20;1.00
19805;DHT22;10062;51.052;13.756;2023-07-09T06:47:48;22.40;99.90
19805;DHT22;10062;51.052;13.756;2023-07-09T06:50:20;22.50;99.90
19805;DHT22;10062;51.052;13.756;2023-07-09T06:52:52;22.50;99.90
19805;DHT22;10062;51.052;13.756;2023-07-09T06:55:24;22.70;99.90
19805;DHT22;10062;51.052;13.756;2023-07-09T06:57:57;22.80;99.90
19805;DHT22;10062;51.052;13.756;2023-07-09T07:00:29;23.00;99.90
19805;DHT22;10062;51.052;13.756;2023-07-09T07:03:00;23.10;99.90
19805;DHT22;10062;51.052;13.756;2023-07-09T07:05:32;23.30;99.90
19805;DHT22;10062;51.052;13.756;2023-07-09T07:08:04;23.50;99.90
19805;DHT22;10062;51.052;13.756;2023-07-09T07:10:37;23.70;99.90
19805;DHT22;10062;51.052;13.756;2023-07-09T07:13:10;23.80;99.90
19805;DHT22;10062;51.052;13.756;2023-07-09T07:15:44;23.90;99.90
19805;DHT22;10062;51.052;13.756;2023-07-09T07:18:16;24.10;99.90
19805;DHT22;10062;51.052;13.756;2023-07-09T07:20:47;24.30;99.90
19805;DHT22;10062;51.052;13.756;2023-07-09T07:23:20;24.40;99.90
19805;DHT22;10062;51.052;13.756;2023-07-09T07:25:51;24.50;99.90
19805;DHT22;10062;51.052;13.756;2023-07-09T07:28:24;24.70;82.40
19805;DHT22;10062;51.052;13.756;2023-07-09T07:31:00;24.80;99.90
19805;DHT22;10062;51.052;13.756;2023-07-09T07:33:32;24.90;42.40
19805;DHT22;10062;51.052;13.756;2023-07-09T07:36:04;25.10;14.50
19805;DHT22;10062;51.052;13.756;2023-07-09T07:38:36;25.30;1.00
19805;DHT22;10062;51.052;13.756;2023-07-09T07:41:08;25.40;1.00
19805;DHT22;10062;51.052;13.756;2023-07-09T07:43:41;25.60;1.00
19805;DHT22;10062;51.052;13.756;2023-07-09T07:46:12;25.70;1.00
19805;DHT22;10062;51.052;13.756;2023-07-09T07:48:44;25.90;1.00
19805;DHT22;10062;51.052;13.756;2023-07-09T07:51:16;26.00;1.00
19805;DHT22;10062;51.052;13.756;2023-07-09T07:53:47;26.10;1.00
19805;DHT22;10062;51.052;13.756;2023-07-09T07:56:20;26.30;1.00
19805;DHT22;10062;51.052;13.756;2023-07-09T07:58:53;26.40;1.00
19805;DHT22;10062;51.052;13.756;2023-07-09T08:01:24;26.70;1.00
19805;DHT22;10062;51.052;13.756;2023-07-09T08:03:56;26.90;1.00
19805;DHT22;10062;51.052;13.756;2023-07-09T08:06:29;26.90;1.00
19805;DHT22;10062;51.052;13.756;2023-07-09T08:09:02;27.10;1.00
19805;DHT22;10062;51.052;13.756;2023-07-09T08:11:34;27.20;1.00
19805;DHT22;10062;51.052;13.756;2023-07-09T08:14:07;27.40;1.00
19805;DHT22;10062;51.052;13.756;2023-07-09T08:16:39;27.50;1.00
19805;DHT22;10062;51.052;13.756;2023-07-09T08:19:10;27.70;1.00
19805;DHT22;10062;51.052;13.756;2023-07-09T08:21:42;27.70;1.00
19805;DHT22;10062;51.052;13.756;2023-07-09T08:24:14;27.90;1.00
19805;DHT22;10062;51.052;13.756;2023-07-09T08:26:45;28.10;1.00
19805;DHT22;10062;51.052;13.756;2023-07-09T08:29:18;28.30;1.00
19805;DHT22;10062;51.052;13.756;2023-07-09T08:31:50;28.50;1.00
19805;DHT22;10062;51.052;13.756;2023-07-09T08:34:22;28.50;1.00
19805;DHT22;10062;51.052;13.756;2023-07-09T08:36:54;28.50;1.00
19805;DHT22;10062;51.052;13.756;2023-07-09T08:39:25;28.70;1.00
19805;DHT22;10062;51.052;13.756;2023-07-09T08:42:00;28.80;1.00
19805;DHT22;10062;51.052;13.756;2023-07-09T08:45:02;28.90;1.00
19805;DHT22;10062;51.052;13.756;2023-07-09T08:47:40;29.10;1.00
19805;DHT22;10062;51.052;13.756;2023-07-09T08:50:16;29.20;1.00
19805;DHT22;10062;51.052;13.756;2023-07-09T08:52:51;29.40;1.00
19805;DHT22;10062;51.052;13.756;2023-07-09T08:55:27;29.50;1.00
19805;DHT22;10062;51.052;13.756;2023-07-09T08:58:03;29.70;1.00
19805;DHT22;10062;51.052;13.756;2023-07-09T09:00:43;29.80;1.00
19805;DHT22;10062;51.052;13.756;2023-07-09T09:03:30;30.00;1.00
19805;DHT22;10062;51.052;13.756;2023-07-09T09:06:11;30.20;1.00
19805;DHT22;10062;51.052;13.756;2023-07-09T09:08:51;30.40;1.00
19805;DHT22;10062;51.052;13.756;2023-07-09T09:11:31;30.60;1.00
19805;DHT22;10062;51.052;13.756;2023-07-09T09:14:12;30.90;1.00
19805;DHT22;10062;51.052;13.756;2023-07-09T09:16:50;31.20;1.00
19805;DHT22;10062;51.052;13.756;2023-07-09T09:19:26;31.40;1.00
19805;DHT22;10062;51.052;13.756;2023-07-09T09:22:01;31.70;1.00
19805;DHT22;10062;51.052;13.756;2023-07-09T09:24:37;32.00;1.00
19805;DHT22;10062;51.052;13.756;2023-07-09T09:27:09;32.20;1.00
19805;DHT22;10062;51.052;13.756;2023-07-09T09:29:41;32.50;1.00
19805;DHT22;10062;51.052;13.756;2023-07-09T09:32:22;32.70;1.00
19805;DHT22;10062;51.052;13.756;2023-07-09T09:34:54;32.90;1.00
19805;DHT22;10062;51.052;13.756;2023-07-09T09:37:28;33.10;1.00
19805;DHT22;10062;51.052;13.756;2023-07-09T09:40:00;33.30;1.00
19805;DHT22;10062;51.052;13.756;2023-07-09T09:42:33;33.10;1.00
19805;DHT22;10062;51.052;13.756;2023-07-09T09:45:11;33.30;1.00
19805;DHT22;10062;51.052;13.756;2023-07-09T09:47:47;33.40;1.00
19805;DHT22;10062;51.052;13.756;2023-07-09T09:50:21;33.50;1.00
19805;DHT22;10062;51.052;13.756;2023-07-09T09:52:54;33.50;1.00
19805;DHT22;10062;51.052;13.756;2023-07-09T09:55:29;33.60;1.00
19805;DHT22;10062;51.052;13.756;2023-07-09T09:58:01;33.80;1.00
19805;DHT22;10062;51.052;13.756;2023-07-09T10:00:33;33.90;1.00
19805;DHT22;10062;51.052;13.756;2023-07-09T10:03:06;34.20;1.00
19805;DHT22;10062;51.052;13.756;2023-07-09T10:05:41;34.90;1.00
19805;DHT22;10062;51.052;13.756;2023-07-09T10:08:20;35.50;1.00
19805;DHT22;10062;51.052;13.756;2023-07-09T10:11:08;35.80;1.00
19805;DHT22;10062;51.052;13.756;2023-07-09T10:13:44;35.10;1.00
19805;DHT22;10062;51.052;13.756;2023-07-09T10:16:21;33.80;1.00
19805;DHT22;10062;51.052;13.756;2023-07-09T10:19:02;35.20;1.00
19805;DHT22;10062;51.052;13.756;2023-07-09T10:21:40;35.60;1.00
19805;DHT22;10062;51.052;13.756;2023-07-09T10:24:30;35.50;1.00
19805;DHT22;10062;51.052;13.756;2023-07-09T10:27:09;35.50;1.00
19805;DHT22;10062;51.052;13.756;2023-07-09T10:29:56;36.60;1.00
19805;DHT22;10062;51.052;13.756;2023-07-09T10:32:40;36.80;1.00
19805;DHT22;10062;51.052;13.756;2023-07-09T10:35:20;36.80;1.00
19805;DHT22;10062;51.052;13.756;2023-07-09T10:38:14;37.30;1.00
19805;DHT22;10062;51.052;13.756;2023-07-09T10:40:52;37.10;1.00
19805;DHT22;10062;51.052;13.756;2023-07-09T10:43:33;37.60;1.00
19805;DHT22;10062;51.052;13.756;2023-07-09T10:46:16;38.60;1.00
19805;DHT22;10062;51.052;13.756;2023-07-09T10:48:50;39.00;1.00
19805;DHT22;10062;51.052;13.756;2023-07-09T10:51:28;38.00;1.00
19805;DHT22;10062;51.052;13.756;2023-07-09T10:54:05;38.10;1.00
19805;DHT22;10062;51.052;13.756;2023-07-09T10:56:39;39.50;1.00
19805;DHT22;10062;51.052;13.756;2023-07-09T10:59:21;40.40;1.00
19805;DHT22;10062;51.052;13.756;2023-07-09T11:01:57;41.20;1.00
19805;DHT22;10062;51.052;13.756;2023-07-09T11:04:33;41.70;1.00
19805;DHT22;10062;51.052;13.756;2023-07-09T11:07:12;41.90;1.00
19805;DHT22;10062;51.052;13.756;2023-07-09T11:09:46;41.90;1.00
19805;DHT22;10062;51.052;13.756;2023-07-09T11:12:26;41.30;1.00
19805;DHT22;10062;51.052;13.756;2023-07-09T11:15:02;40.80;1.00
19805;DHT22;10062;51.052;13.756;2023-07-09T11:17:37;39.80;1.00
19805;DHT22;10062;51.052;13.756;2023-07-09T11:20:19;40.30;1.00
19805;DHT22;10062;51.052;13.756;2023-07-09T11:23:04;40.70;1.00
19805;DHT22;10062;51.052;13.756;2023-07-09T11:25:44;41.20;1.00
19805;DHT22;10062;51.052;13.756;2023-07-09T11:28:16;40.80;1.00
19805;DHT22;10062;51.052;13.756;2023-07-09T11:30:50;41.00;1.00
19805;DHT22;10062;51.052;13.756;2023-07-09T11:33:27;40.60;1.00
19805;DHT22;10062;51.052;13.756;2023-07-09T11:36:09;40.40;1.00
19805;DHT22;10062;51.052;13.756;2023-07-09T11:38:44;39.60;1.00
19805;DHT22;10062;51.052;13.756;2023-07-09T11:41:28;38.90;1.00
19805;DHT22;10062;51.052;13.756;2023-07-09T11:44:13;38.90;1.00
19805;DHT22;10062;51.052;13.756;2023-07-09T11:46:54;38.50;1.00
19805;DHT22;10062;51.052;13.756;2023-07-09T11:49:34;38.80;1.00
19805;DHT22;10062;51.052;13.756;2023-07-09T11:52:10;38.60;1.00
19805;DHT22;10062;51.052;13.756;2023-07-09T11:54:43;39.00;1.00
19805;DHT22;10062;51.052;13.756;2023-07-09T11:57:14;39.00;1.00
19805;DHT22;10062;51.052;13.756;2023-07-09T11:59:46;38.90;1.00
19805;DHT22;10062;51.052;13.756;2023-07-09T12:02:19;39.20;1.00
19805;DHT22;10062;51.052;13.756;2023-07-09T12:04:52;39.20;1.00
19805;DHT22;10062;51.052;13.756;2023-07-09T12:07:25;39.30;1.00
19805;DHT22;10062;51.052;13.756;2023-07-09T12:09:58;39.50;1.00
19805;DHT22;10062;51.052;13.756;2023-07-09T12:12:29;39.60;1.00
19805;DHT22;10062;51.052;13.756;2023-07-09T12:15:05;39.70;1.00
19805;DHT22;10062;51.052;13.756;2023-07-09T12:17:37;39.60;1.00
19805;DHT22;10062;51.052;13.756;2023-07-09T12:20:10;39.50;1.00
19805;DHT22;10062;51.052;13.756;2023-07-09T12:22:44;39.60;1.00
19805;DHT22;10062;51.052;13.756;2023-07-09T12:25:23;39.60;1.00
19805;DHT22;10062;51.052;13.756;2023-07-09T12:27:58;39.80;1.00
19805;DHT22;10062;51.052;13.756;2023-07-09T12:30:32;39.90;1.00
19805;DHT22;10062;51.052;13.756;2023-07-09T12:33:07;39.90;1.00
19805;DHT22;10062;51.052;13.756;2023-07-09T12:35:39;40.00;1.00
19805;DHT22;10062;51.052;13.756;2023-07-09T12:38:17;40.60;1.00
19805;DHT22;10062;51.052;13.756;2023-07-09T12:40:52;40.00;1.00
19805;DHT22;10062;51.052;13.756;2023-07-09T12:43:26;40.10;1.00
19805;DHT22;10062;51.052;13.756;2023-07-09T12:45:59;39.90;1.00
19805;DHT22;10062;51.052;13.756;2023-07-09T12:48:31;40.10;1.00
19805;DHT22;10062;51.052;13.756;2023-07-09T12:51:07;40.30;1.00
19805;DHT22;10062;51.052;13.756;2023-07-09T12:53:39;40.40;1.00
19805;DHT22;10062;51.052;13.756;2023-07-09T12:56:24;41.00;1.00
19805;DHT22;10062;51.052;13.756;2023-07-09T12:59:17;40.80;1.00
19805;DHT22;10062;51.052;13.756;2023-07-09T13:01:51;40.80;1.00
19805;DHT22;10062;51.052;13.756;2023-07-09T13:04:30;40.50;1.00
19805;DHT22;10062;51.052;13.756;2023-07-09T13:07:02;40.50;1.00
19805;DHT22;10062;51.052;13.756;2023-07-09T13:12:11;40.90;1.00
19805;DHT22;10062;51.052;13.756;2023-07-09T13:14:42;40.90;1.00
19805;DHT22;10062;51.052;13.756;2023-07-09T13:19:50;40.90;1.00
19805;DHT22;10062;51.052;13.756;2023-07-09T13:22:28;41.00;1.00
19805;DHT22;10062;51.052;13.756;2023-07-09T13:24:59;41.00;1.00
19805;DHT22;10062;51.052;13.756;2023-07-09T13:27:33;40.90;1.00
19805;DHT22;10062;51.052;13.756;2023-07-09T13:30:06;40.90;1.00
19805;DHT22;10062;51.052;13.756;2023-07-09T13:32:38;40.90;1.00
19805;DHT22;10062;51.052;13.756;2023-07-09T13:35:13;40.90;1.00
19805;DHT22;10062;51.052;13.756;2023-07-09T13:37:46;40.80;1.00
19805;DHT22;10062;51.052;13.756;2023-07-09T13:40:18;40.90;1.00
19805;DHT22;10062;51.052;13.756;2023-07-09T13:42:51;41.10;1.00
19805;DHT22;10062;51.052;13.756;2023-07-09T13:45:25;41.00;1.00
19805;DHT22;10062;51.052;13.756;2023-07-09T13:47:57;41.20;1.00
19805;DHT22;10062;51.052;13.756;2023-07-09T13:50:29;41.70;1.00
19805;DHT22;10062;51.052;13.756;2023-07-09T13:55:32;41.30;1.00
19805;DHT22;10062;51.052;13.756;2023-07-09T13:58:07;41.30;1.00
19805;DHT22;10062;51.052;13.756;2023-07-09T14:00:40;41.40;1.00
19805;DHT22;10062;51.052;13.756;2023-07-09T14:03:15;41.30;1.00
19805;DHT22;10062;51.052;13.756;2023-07-09T14:05:48;41.30;1.00
19805;DHT22;10062;51.052;13.756;2023-07-09T14:08:21;41.40;1.00
19805;DHT22;10062;51.052;13.756;2023-07-09T14:10:52;41.60;1.00
19805;DHT22;10062;51.052;13.756;2023-07-09T14:13:29;41.50;1.00
19805;DHT22;10062;51.052;13.756;2023-07-09T14:16:02;41.70;1.00
19805;DHT22;10062;51.052;13.756;2023-07-09T14:18:34;41.60;1.00
19805;DHT22;10062;51.052;13.756;2023-07-09T14:21:11;41.80;1.00
19805;DHT22;10062;51.052;13.756;2023-07-09T14:23:43;41.80;1.00
19805;DHT22;10062;51.052;13.756;2023-07-09T14:26:15;41.80;1.00
19805;DHT22;10062;51.052;13.756;2023-07-09T14:28:48;41.70;1.00
19805;DHT22;10062;51.052;13.756;2023-07-09T14:31:24;41.80;1.00
19805;DHT22;10062;51.052;13.756;2023-07-09T14:34:10;41.60;1.00
19805;DHT22;10062;51.052;13.756;2023-07-09T14:36:45;41.40;1.00
19805;DHT22;10062;51.052;13.756;2023-07-09T14:39:17;41.60;1.00
19805;DHT22;10062;51.052;13.756;2023-07-09T14:41:49;41.60;1.00
19805;DHT22;10062;51.052;13.756;2023-07-09T14:44:27;41.80;1.00
19805;DHT22;10062;51.052;13.756;2023-07-09T14:47:00;41.90;1.00
19805;DHT22;10062;51.052;13.756;2023-07-09T14:49:32;41.70;1.00
19805;DHT22;10062;51.052;13.756;2023-07-09T14:52:08;41.50;1.00
19805;DHT22;10062;51.052;13.756;2023-07-09T14:54:41;41.40;1.00
19805;DHT22;10062;51.052;13.756;2023-07-09T14:57:18;40.70;1.00
19805;DHT22;10062;51.052;13.756;2023-07-09T14:59:52;40.00;1.00
19805;DHT22;10062;51.052;13.756;2023-07-09T15:02:32;39.50;1.00
19805;DHT22;10062;51.052;13.756;2023-07-09T15:05:09;39.70;1.00
19805;DHT22;10062;51.052;13.756;2023-07-09T15:07:43;39.50;1.00
19805;DHT22;10062;51.052;13.756;2023-07-09T15:10:17;39.20;1.00
19805;DHT22;10062;51.052;13.756;2023-07-09T15:12:49;39.20;1.00
19805;DHT22;10062;51.052;13.756;2023-07-09T15:15:25;39.30;1.00
19805;DHT22;10062;51.052;13.756;2023-07-09T15:17:59;39.20;1.00
19805;DHT22;10062;51.052;13.756;2023-07-09T15:20:31;38.90;1.00
19805;DHT22;10062;51.052;13.756;2023-07-09T15:23:03;38.90;1.00
19805;DHT22;10062;51.052;13.756;2023-07-09T15:28:09;38.90;1.00
19805;DHT22;10062;51.052;13.756;2023-07-09T15:30:43;38.10;1.00
19805;DHT22;10062;51.052;13.756;2023-07-09T15:33:16;37.70;1.00
19805;DHT22;10062;51.052;13.756;2023-07-09T15:35:49;37.60;1.00
19805;DHT22;10062;51.052;13.756;2023-07-09T15:38:26;37.70;1.00
19805;DHT22;10062;51.052;13.756;2023-07-09T15:40:58;37.70;1.00
19805;DHT22;10062;51.052;13.756;2023-07-09T15:43:30;37.60;1.00
19805;DHT22;10062;51.052;13.756;2023-07-09T15:46:03;37.50;1.00
19805;DHT22;10062;51.052;13.756;2023-07-09T15:48:36;34.00;1.00
19805;DHT22;10062;51.052;13.756;2023-07-09T15:51:08;37.10;1.00
19805;DHT22;10062;51.052;13.756;2023-07-09T15:53:40;36.80;1.00
19805;DHT22;10062;51.052;13.756;2023-07-09T15:56:18;36.20;1.00
19805;DHT22;10062;51.052;13.756;2023-07-09T15:58:52;36.50;1.00
19805;DHT22;10062;51.052;13.756;2023-07-09T16:01:25;36.30;1.00
19805;DHT22;10062;51.052;13.756;2023-07-09T16:03:59;36.30;1.00
19805;DHT22;10062;51.052;13.756;2023-07-09T16:06:31;36.20;1.00
19805;DHT22;10062;51.052;13.756;2023-07-09T16:09:04;36.20;1.00
19805;DHT22;10062;51.052;13.756;2023-07-09T16:11:36;36.00;1.00
19805;DHT22;10062;51.052;13.756;2023-07-09T16:14:17;35.50;1.00
19805;DHT22;10062;51.052;13.756;2023-07-09T16:16:52;35.10;1.00
19805;DHT22;10062;51.052;13.756;2023-07-09T16:19:27;35.00;1.00
19805;DHT22;10062;51.052;13.756;2023-07-09T16:22:02;34.90;1.00